sensor_id;sensor_type;location;lat;lon;timestamp;pressure;altitude;pressure_sealevel;temperature;humidity
48089;BME280;33867;50.314;7.802;2023-04-21T00:06:16;100141.84;;;6.36;92.18
48089;BME280;33867;50.314;7.802;2023-04-21T00:09:41;100133.81;;;6.36;92.59
48089;BME280;33867;50.314;7.802;2023-04-21T00:13:00;100137.84;;;6.42;92.00
48089;BME280;33867;50.314;7.802;2023-04-21T00:21:57;100140.66;;;6.29;94.39
48089;BME280;33867;50.314;7.802;2023-04-21T00:35:07;100127.28;;;6.29;94.77
48089;BME280;33867;50.314;7.802;2023-04-21T00:58:01;100127.59;;;6.69;91.87
48089;BME280;33867;50.314;7.802;2023-04-21T01:19:01;100136.88;;;6.43;94.49
48089;BME280;33867;50.314;7.802;2023-04-21T01:33:44;100133.94;;;6.57;92.34
48089;BME280;33867;50.314;7.802;2023-04-21T01:47:24;100117.19;;;6.33;93.72
48089;BME280;33867;50.314;7.802;2023-04-21T01:51:21;100115.50;;;6.21;94.70
48089;BME280;33867;50.314;7.802;2023-04-21T01:59:55;100125.47;;;6.19;92.62
48089;BME280;33867;50.314;7.802;2023-04-21T02:06:52;100123.97;;;6.14;92.68
48089;BME280;33867;50.314;7.802;2023-04-21T02:20:29;100133.72;;;6.04;93.30
48089;BME280;33867;50.314;7.802;2023-04-21T03:22:25;100124.97;;;5.67;95.92
48089;BME280;33867;50.314;7.802;2023-04-21T03:49:14;100129.47;;;6.24;90.77
48089;BME280;33867;50.314;7.802;2023-04-21T06:39:50;100151.91;;;6.89;93.28
48089;BME280;33867;50.314;7.802;2023-04-21T06:48:18;100143.44;;;7.04;92.74
48089;BME280;33867;50.314;7.802;2023-04-21T06:52:13;100147.03;;;6.83;94.33
48089;BME280;33867;50.314;7.802;2023-04-21T06:55:33;100142.38;;;6.96;94.28
48089;BME280;33867;50.314;7.802;2023-04-21T06:59:02;100138.56;;;7.10;92.76
48089;BME280;33867;50.314;7.802;2023-04-21T07:02:43;100148.47;;;7.30;91.66
48089;BME280;33867;50.314;7.802;2023-04-21T07:06:07;100148.09;;;7.35;91.41
48089;BME280;33867;50.314;7.802;2023-04-21T07:09:26;100150.78;;;7.35;91.36
48089;BME280;33867;50.314;7.802;2023-04-21T07:12:48;100155.59;;;7.41;91.23
48089;BME280;33867;50.314;7.802;2023-04-21T07:16:10;100146.22;;;7.67;90.13
48089;BME280;33867;50.314;7.802;2023-04-21T07:19:32;100148.91;;;7.46;90.22
48089;BME280;33867;50.314;7.802;2023-04-21T07:22:51;100145.97;;;7.49;91.11
48089;BME280;33867;50.314;7.802;2023-04-21T07:26:13;100146.81;;;7.50;91.07
48089;BME280;33867;50.314;7.802;2023-04-21T07:29:35;100143.91;;;7.42;91.12
48089;BME280;33867;50.314;7.802;2023-04-21T07:42:42;100140.59;;;7.91;89.89
48089;BME280;33867;50.314;7.802;2023-04-21T08:06:04;100157.06;;;8.59;86.95
48089;BME280;33867;50.314;7.802;2023-04-21T08:09:52;100155.72;;;8.43;86.97
48089;BME280;33867;50.314;7.802;2023-04-21T08:13:15;100150.97;;;9.06;86.81
48089;BME280;33867;50.314;7.802;2023-04-21T08:16:38;100155.50;;;9.45;84.07
48089;BME280;33867;50.314;7.802;2023-04-21T08:20:01;100159.34;;;9.52;83.56
48089;BME280;33867;50.314;7.802;2023-04-21T08:23:38;100146.31;;;9.86;82.27
48089;BME280;33867;50.314;7.802;2023-04-21T08:26:58;100139.00;;;10.15;81.68
48089;BME280;33867;50.314;7.802;2023-04-21T08:30:17;100140.75;;;9.97;80.12
48089;BME280;33867;50.314;7.802;2023-04-21T08:33:36;100147.22;;;10.23;80.04
48089;BME280;33867;50.314;7.802;2023-04-21T08:37:19;100142.25;;;11.11;76.90
48089;BME280;33867;50.314;7.802;2023-04-21T08:40:58;100146.31;;;10.70;77.13
48089;BME280;33867;50.314;7.802;2023-04-21T08:44:33;100134.59;;;11.78;75.58
48089;BME280;33867;50.314;7.802;2023-04-21T08:47:54;100121.16;;;12.04;73.93
48089;BME280;33867;50.314;7.802;2023-04-21T08:51:20;100124.19;;;12.26;71.33
48089;BME280;33867;50.314;7.802;2023-04-21T08:54:39;100123.97;;;12.20;71.77
48089;BME280;33867;50.314;7.802;2023-04-21T08:58:03;100121.66;;;12.59;72.54
48089;BME280;33867;50.314;7.802;2023-04-21T09:01:22;100112.44;;;13.77;67.82
48089;BME280;33867;50.314;7.802;2023-04-21T09:04:47;100116.97;;;13.93;64.41
48089;BME280;33867;50.314;7.802;2023-04-21T09:08:12;100123.91;;;13.30;66.02
48089;BME280;33867;50.314;7.802;2023-04-21T09:15:37;100113.00;;;13.14;69.30
48089;BME280;33867;50.314;7.802;2023-04-21T09:18:59;100103.78;;;13.25;67.73
48089;BME280;33867;50.314;7.802;2023-04-21T09:22:18;100100.06;;;13.91;66.52
48089;BME280;33867;50.314;7.802;2023-04-21T09:25:43;100088.25;;;13.75;67.54
48089;BME280;33867;50.314;7.802;2023-04-21T09:29:07;100079.91;;;14.96;65.15
48089;BME280;33867;50.314;7.802;2023-04-21T09:33:05;100081.06;;;15.25;64.53
48089;BME280;33867;50.314;7.802;2023-04-21T09:36:28;100086.81;;;14.99;65.06
48089;BME280;33867;50.314;7.802;2023-04-21T09:40:07;100072.22;;;14.29;65.53
48089;BME280;33867;50.314;7.802;2023-04-21T09:43:30;100067.28;;;14.80;66.15
48089;BME280;33867;50.314;7.802;2023-04-21T09:46:50;100063.16;;;14.93;65.21
48089;BME280;33867;50.314;7.802;2023-04-21T09:54:31;100052.81;;;15.19;63.61
48089;BME280;33867;50.314;7.802;2023-04-21T10:02:53;100030.44;;;17.51;59.31
48089;BME280;33867;50.314;7.802;2023-04-21T10:06:13;100040.13;;;16.90;55.95
48089;BME280;33867;50.314;7.802;2023-04-21T10:10:03;100021.63;;;17.99;57.00
48089;BME280;33867;50.314;7.802;2023-04-21T10:13:25;100016.41;;;18.86;55.28
48089;BME280;33867;50.314;7.802;2023-04-21T10:21:39;100016.66;;;19.05;51.31
48089;BME280;33867;50.314;7.802;2023-04-21T10:25:23;100009.63;;;18.69;52.39
48089;BME280;33867;50.314;7.802;2023-04-21T10:28:56;100012.09;;;17.81;54.81
48089;BME280;33867;50.314;7.802;2023-04-21T10:32:39;100001.53;;;17.44;54.73
48089;BME280;33867;50.314;7.802;2023-04-21T10:36:00;100002.66;;;17.56;56.99
48089;BME280;33867;50.314;7.802;2023-04-21T10:39:32;100004.53;;;17.06;54.45
48089;BME280;33867;50.314;7.802;2023-04-21T10:42:53;100006.25;;;17.85;56.34
48089;BME280;33867;50.314;7.802;2023-04-21T10:50:59;99989.34;;;18.91;53.42
48089;BME280;33867;50.314;7.802;2023-04-21T10:59:14;99977.69;;;18.08;56.39
48089;BME280;33867;50.314;7.802;2023-04-21T11:02:35;99972.56;;;19.87;52.46
48089;BME280;33867;50.314;7.802;2023-04-21T11:05:54;99968.50;;;20.74;51.63
48089;BME280;33867;50.314;7.802;2023-04-21T11:09:15;99976.50;;;20.11;48.57
48089;BME280;33867;50.314;7.802;2023-04-21T11:17:24;99960.13;;;21.32;46.04
48089;BME280;33867;50.314;7.802;2023-04-21T11:20:45;99956.22;;;19.54;48.32
48089;BME280;33867;50.314;7.802;2023-04-21T11:24:34;99947.59;;;19.50;50.04
48089;BME280;33867;50.314;7.802;2023-04-21T11:28:39;99939.88;;;21.33;49.52
48089;BME280;33867;50.314;7.802;2023-04-21T11:32:29;99927.94;;;21.89;42.83
48089;BME280;33867;50.314;7.802;2023-04-21T11:35:54;99924.59;;;22.72;47.59
48089;BME280;33867;50.314;7.802;2023-04-21T11:39:16;99920.06;;;22.47;46.55
48089;BME280;33867;50.314;7.802;2023-04-21T11:47:35;99908.88;;;23.09;42.18
48089;BME280;33867;50.314;7.802;2023-04-21T11:50:55;99913.63;;;22.05;45.72
48089;BME280;33867;50.314;7.802;2023-04-21T11:54:16;99908.75;;;23.27;41.79
48089;BME280;33867;50.314;7.802;2023-04-21T11:57:38;99908.72;;;23.16;41.16
48089;BME280;33867;50.314;7.802;2023-04-21T12:01:25;99912.78;;;23.13;40.93
48089;BME280;33867;50.314;7.802;2023-04-21T12:04:59;99888.78;;;23.09;42.60
48089;BME280;33867;50.314;7.802;2023-04-21T12:08:19;99878.22;;;22.22;43.63
48089;BME280;33867;50.314;7.802;2023-04-21T12:16:27;99868.25;;;22.99;44.20
48089;BME280;33867;50.314;7.802;2023-04-21T12:19:46;99883.41;;;23.96;42.80
48089;BME280;33867;50.314;7.802;2023-04-21T12:23:05;99885.81;;;21.65;43.95
48089;BME280;33867;50.314;7.802;2023-04-21T12:30:27;99877.75;;;21.34;46.56
48089;BME280;33867;50.314;7.802;2023-04-21T12:33:46;99865.41;;;22.76;44.46
48089;BME280;33867;50.314;7.802;2023-04-21T12:37:17;99877.50;;;22.15;44.30
48089;BME280;33867;50.314;7.802;2023-04-21T12:40:50;99872.59;;;21.44;44.86
48089;BME280;33867;50.314;7.802;2023-04-21T12:44:14;99878.19;;;20.36;46.60
48089;BME280;33867;50.314;7.802;2023-04-21T12:47:36;99867.31;;;21.42;46.82
48089;BME280;33867;50.314;7.802;2023-04-21T12:50:57;99879.63;;;20.45;45.64
48089;BME280;33867;50.314;7.802;2023-04-21T12:54:19;99875.63;;;20.79;45.42
48089;BME280;33867;50.314;7.802;2023-04-21T12:57:57;99882.84;;;20.73;46.35
48089;BME280;33867;50.314;7.802;2023-04-21T13:01:16;99877.41;;;19.77;47.60
48089;BME280;33867;50.314;7.802;2023-04-21T13:08:43;99868.47;;;19.04;50.27
48089;BME280;33867;50.314;7.802;2023-04-21T13:12:10;99871.81;;;19.13;49.30
48089;BME280;33867;50.314;7.802;2023-04-21T13:15:30;99863.63;;;19.26;46.93
48089;BME280;33867;50.314;7.802;2023-04-21T13:19:15;99848.69;;;19.42;47.54
48089;BME280;33867;50.314;7.802;2023-04-21T13:22:41;99845.03;;;20.26;46.14
48089;BME280;33867;50.314;7.802;2023-04-21T13:26:35;99855.97;;;21.39;42.08
48089;BME280;33867;50.314;7.802;2023-04-21T13:29:56;99841.47;;;19.74;43.82
48089;BME280;33867;50.314;7.802;2023-04-21T13:33:18;99831.03;;;19.44;46.61
48089;BME280;33867;50.314;7.802;2023-04-21T13:41:16;99810.72;;;21.91;42.59
48089;BME280;33867;50.314;7.802;2023-04-21T13:45:12;99812.84;;;21.34;42.65
48089;BME280;33867;50.314;7.802;2023-04-21T13:48:31;99813.28;;;21.31;43.37
48089;BME280;33867;50.314;7.802;2023-04-21T13:51:58;99801.03;;;22.90;41.91
48089;BME280;33867;50.314;7.802;2023-04-21T13:55:43;99802.81;;;21.03;43.27
48089;BME280;33867;50.314;7.802;2023-04-21T13:59:05;99792.38;;;21.37;41.20
48089;BME280;33867;50.314;7.802;2023-04-21T14:02:25;99787.13;;;20.67;43.09
48089;BME280;33867;50.314;7.802;2023-04-21T14:05:47;99779.81;;;20.86;43.42
48089;BME280;33867;50.314;7.802;2023-04-21T14:09:07;99784.53;;;20.15;45.30
48089;BME280;33867;50.314;7.802;2023-04-21T14:12:27;99781.34;;;18.30;47.05
48089;BME280;33867;50.314;7.802;2023-04-21T14:15:46;99781.22;;;19.69;46.26
48089;BME280;33867;50.314;7.802;2023-04-21T14:19:30;99773.25;;;20.37;43.00
48089;BME280;33867;50.314;7.802;2023-04-21T14:23:52;99773.28;;;21.05;43.00
48089;BME280;33867;50.314;7.802;2023-04-21T14:27:11;99757.16;;;21.88;42.32
48089;BME280;33867;50.314;7.802;2023-04-21T14:30:31;99758.53;;;23.04;41.09
48089;BME280;33867;50.314;7.802;2023-04-21T14:33:50;99746.84;;;21.72;40.46
48089;BME280;33867;50.314;7.802;2023-04-21T14:37:09;99739.75;;;22.78;41.31
48089;BME280;33867;50.314;7.802;2023-04-21T14:40:28;99735.84;;;22.97;40.00
48089;BME280;33867;50.314;7.802;2023-04-21T14:43:47;99740.63;;;23.54;40.11
48089;BME280;33867;50.314;7.802;2023-04-21T14:47:41;99732.59;;;22.54;40.07
48089;BME280;33867;50.314;7.802;2023-04-21T14:51:00;99731.22;;;22.33;40.47
48089;BME280;33867;50.314;7.802;2023-04-21T14:54:20;99723.75;;;22.52;41.29
48089;BME280;33867;50.314;7.802;2023-04-21T14:57:39;99721.47;;;22.48;39.75
48089;BME280;33867;50.314;7.802;2023-04-21T15:00:58;99720.47;;;21.23;43.01
48089;BME280;33867;50.314;7.802;2023-04-21T15:04:17;99721.56;;;20.29;44.01
48089;BME280;33867;50.314;7.802;2023-04-21T15:07:37;99716.72;;;19.99;46.75
48089;BME280;33867;50.314;7.802;2023-04-21T15:10:58;99717.22;;;19.45;47.21
48089;BME280;33867;50.314;7.802;2023-04-21T15:14:18;99717.81;;;19.53;47.18
48089;BME280;33867;50.314;7.802;2023-04-21T15:17:38;99720.34;;;18.77;48.23
48089;BME280;33867;50.314;7.802;2023-04-21T15:20:57;99705.22;;;18.08;49.50
48089;BME280;33867;50.314;7.802;2023-04-21T15:24:26;99696.63;;;18.84;47.39
48089;BME280;33867;50.314;7.802;2023-04-21T15:27:52;99684.63;;;19.50;48.04
48089;BME280;33867;50.314;7.802;2023-04-21T15:31:14;99670.34;;;20.18;46.24
48089;BME280;33867;50.314;7.802;2023-04-21T15:34:42;99682.41;;;19.34;46.99
48089;BME280;33867;50.314;7.802;2023-04-21T15:38:34;99679.50;;;19.98;46.07
48089;BME280;33867;50.314;7.802;2023-04-21T15:41:55;99673.88;;;20.25;44.19
48089;BME280;33867;50.314;7.802;2023-04-21T15:45:28;99663.47;;;20.33;45.19
48089;BME280;33867;50.314;7.802;2023-04-21T15:48:53;99671.69;;;18.61;47.99
48089;BME280;33867;50.314;7.802;2023-04-21T15:52:12;99669.81;;;18.08;49.69
48089;BME280;33867;50.314;7.802;2023-04-21T15:55:32;99662.47;;;17.96;51.15
48089;BME280;33867;50.314;7.802;2023-04-21T15:59:25;99663.28;;;18.76;49.49
48089;BME280;33867;50.314;7.802;2023-04-21T16:03:07;99654.78;;;19.04;48.39
48089;BME280;33867;50.314;7.802;2023-04-21T16:06:56;99637.19;;;19.06;47.36
48089;BME280;33867;50.314;7.802;2023-04-21T16:10:17;99641.09;;;19.17;47.79
48089;BME280;33867;50.314;7.802;2023-04-21T16:13:36;99643.13;;;18.83;46.30
48089;BME280;33867;50.314;7.802;2023-04-21T16:17:16;99637.25;;;18.86;47.77
48089;BME280;33867;50.314;7.802;2023-04-21T16:20:56;99632.47;;;18.62;47.38
48089;BME280;33867;50.314;7.802;2023-04-21T16:24:19;99634.50;;;18.86;47.53
48089;BME280;33867;50.314;7.802;2023-04-21T16:27:38;99627.66;;;18.64;47.87
48089;BME280;33867;50.314;7.802;2023-04-21T16:31:01;99622.84;;;18.39;48.77
48089;BME280;33867;50.314;7.802;2023-04-21T16:34:25;99630.34;;;18.70;48.97
48089;BME280;33867;50.314;7.802;2023-04-21T16:37:48;99625.59;;;18.20;48.10
48089;BME280;33867;50.314;7.802;2023-04-21T16:41:15;99620.34;;;18.18;48.52
48089;BME280;33867;50.314;7.802;2023-04-21T16:44:35;99614.06;;;18.18;49.64
48089;BME280;33867;50.314;7.802;2023-04-21T16:47:55;99617.63;;;18.25;49.19
48089;BME280;33867;50.314;7.802;2023-04-21T16:51:28;99610.91;;;18.40;48.85
48089;BME280;33867;50.314;7.802;2023-04-21T16:55:05;99609.19;;;18.53;48.27
48089;BME280;33867;50.314;7.802;2023-04-21T16:58:25;99600.50;;;18.82;48.60
48089;BME280;33867;50.314;7.802;2023-04-21T17:01:44;99611.72;;;18.41;49.39
48089;BME280;33867;50.314;7.802;2023-04-21T17:05:06;99616.81;;;17.91;49.17
48089;BME280;33867;50.314;7.802;2023-04-21T17:08:26;99619.31;;;17.93;51.75
48089;BME280;33867;50.314;7.802;2023-04-21T17:11:46;99613.47;;;17.89;51.31
48089;BME280;33867;50.314;7.802;2023-04-21T17:15:06;99622.25;;;17.91;51.22
48089;BME280;33867;50.314;7.802;2023-04-21T17:18:36;99626.63;;;17.99;51.69
48089;BME280;33867;50.314;7.802;2023-04-21T17:21:55;99615.94;;;17.64;53.77
48089;BME280;33867;50.314;7.802;2023-04-21T17:25:39;99626.69;;;17.18;51.58
48089;BME280;33867;50.314;7.802;2023-04-21T17:28:59;99637.00;;;16.81;51.33
48089;BME280;33867;50.314;7.802;2023-04-21T17:32:20;99642.88;;;16.85;53.04
48089;BME280;33867;50.314;7.802;2023-04-21T17:35:39;99653.06;;;16.76;53.17
48089;BME280;33867;50.314;7.802;2023-04-21T17:38:58;99659.13;;;16.72;53.24
48089;BME280;33867;50.314;7.802;2023-04-21T17:46:22;99670.63;;;16.46;52.15
48089;BME280;33867;50.314;7.802;2023-04-21T17:50:07;99666.81;;;16.40;52.62
48089;BME280;33867;50.314;7.802;2023-04-21T17:53:33;99665.53;;;16.36;53.58
48089;BME280;33867;50.314;7.802;2023-04-21T17:56:53;99685.75;;;16.33;53.96
48089;BME280;33867;50.314;7.802;2023-04-21T18:00:13;99701.09;;;15.92;58.40
48089;BME280;33867;50.314;7.802;2023-04-21T18:03:42;99712.03;;;15.62;57.67
48089;BME280;33867;50.314;7.802;2023-04-21T18:07:02;99735.19;;;15.43;62.80
48089;BME280;33867;50.314;7.802;2023-04-21T18:11:06;99821.88;;;14.93;64.20
48089;BME280;33867;50.314;7.802;2023-04-21T18:14:32;99916.38;;;13.32;74.44
48089;BME280;33867;50.314;7.802;2023-04-21T18:17:51;99887.09;;;12.14;100.00
48089;BME280;33867;50.314;7.802;2023-04-21T18:21:11;99854.19;;;11.60;100.00
48089;BME280;33867;50.314;7.802;2023-04-21T18:29:46;99717.88;;;11.07;100.00
48089;BME280;33867;50.314;7.802;2023-04-21T18:33:21;99681.50;;;11.03;100.00
48089;BME280;33867;50.314;7.802;2023-04-21T18:36:48;99673.50;;;11.27;100.00
48089;BME280;33867;50.314;7.802;2023-04-21T18:40:21;99687.00;;;11.43;97.37
48089;BME280;33867;50.314;7.802;2023-04-21T18:43:42;99673.38;;;11.69;90.77
48089;BME280;33867;50.314;7.802;2023-04-21T18:47:47;99674.94;;;11.80;89.48
48089;BME280;33867;50.314;7.802;2023-04-21T18:51:53;99674.94;;;11.80;87.26
48089;BME280;33867;50.314;7.802;2023-04-21T18:55:13;99685.38;;;11.83;85.65
48089;BME280;33867;50.314;7.802;2023-04-21T19:07:48;99711.97;;;11.11;89.78
48089;BME280;33867;50.314;7.802;2023-04-21T19:21:32;99753.56;;;10.49;94.71
48089;BME280;33867;50.314;7.802;2023-04-21T19:29:35;99732.56;;;10.52;90.75
48089;BME280;33867;50.314;7.802;2023-04-21T19:36:26;99736.06;;;10.45;93.64
48089;BME280;33867;50.314;7.802;2023-04-21T19:45:18;99739.47;;;10.11;92.93
48089;BME280;33867;50.314;7.802;2023-04-21T19:49:24;99753.41;;;9.89;97.10
48089;BME280;33867;50.314;7.802;2023-04-21T19:53:12;99737.03;;;10.00;92.71
48089;BME280;33867;50.314;7.802;2023-04-21T20:01:29;99755.00;;;9.82;91.69
48089;BME280;33867;50.314;7.802;2023-04-21T20:10:16;99755.38;;;9.69;95.74
48089;BME280;33867;50.314;7.802;2023-04-21T20:18:47;99748.63;;;9.65;94.43
48089;BME280;33867;50.314;7.802;2023-04-21T20:27:03;99747.63;;;9.21;97.87
48089;BME280;33867;50.314;7.802;2023-04-21T20:30:24;99738.56;;;9.22;94.19
48089;BME280;33867;50.314;7.802;2023-04-21T20:33:44;99743.66;;;9.25;94.81
48089;BME280;33867;50.314;7.802;2023-04-21T20:37:04;99737.28;;;9.26;92.08
48089;BME280;33867;50.314;7.802;2023-04-21T20:40:24;99737.28;;;9.26;94.57
48089;BME280;33867;50.314;7.802;2023-04-21T20:43:43;99730.50;;;9.22;93.38
48089;BME280;33867;50.314;7.802;2023-04-21T20:47:16;99724.94;;;9.33;92.17
48089;BME280;33867;50.314;7.802;2023-04-21T20:50:39;99723.03;;;9.43;91.53
48089;BME280;33867;50.314;7.802;2023-04-21T20:53:58;99729.34;;;9.52;92.89
48089;BME280;33867;50.314;7.802;2023-04-21T21:01:54;99729.22;;;9.71;89.47
48089;BME280;33867;50.314;7.802;2023-04-21T21:05:14;99727.13;;;9.65;90.27
48089;BME280;33867;50.314;7.802;2023-04-21T21:13:42;99731.59;;;9.74;89.00
48089;BME280;33867;50.314;7.802;2023-04-21T21:22:43;99741.19;;;9.77;89.07
48089;BME280;33867;50.314;7.802;2023-04-21T21:30:22;99736.66;;;9.77;88.34
48089;BME280;33867;50.314;7.802;2023-04-21T21:38:35;99735.19;;;9.65;89.51
48089;BME280;33867;50.314;7.802;2023-04-21T21:41:56;99739.03;;;9.62;89.98
48089;BME280;33867;50.314;7.802;2023-04-21T21:45:18;99739.56;;;9.66;89.35
48089;BME280;33867;50.314;7.802;2023-04-21T21:52:59;99739.81;;;9.73;88.34
48089;BME280;33867;50.314;7.802;2023-04-21T21:56:24;99740.09;;;9.70;89.45
48089;BME280;33867;50.314;7.802;2023-04-21T22:00:11;99741.41;;;9.65;88.37
48089;BME280;33867;50.314;7.802;2023-04-21T22:03:41;99737.56;;;9.68;88.61
48089;BME280;33867;50.314;7.802;2023-04-21T22:07:06;99732.34;;;9.66;88.67
48089;BME280;33867;50.314;7.802;2023-04-21T22:10:36;99725.81;;;9.51;89.40
48089;BME280;33867;50.314;7.802;2023-04-21T22:34:08;99741.56;;;9.19;89.93
48089;BME280;33867;50.314;7.802;2023-04-21T22:46:21;99748.84;;;9.36;89.88
48089;BME280;33867;50.314;7.802;2023-04-21T23:08:37;99734.69;;;9.34;89.12
48089;BME280;33867;50.314;7.802;2023-04-21T23:17:16;99738.41;;;9.23;93.54
48089;BME280;33867;50.314;7.802;2023-04-21T23:21:22;99742.03;;;9.32;89.68
